TimeCST,TemperatureF,Dew PointF,Humidity,Sea Level PressureIn,VisibilityMPH,Wind Direction,Wind SpeedMPH,Gust SpeedMPH,PrecipitationIn,Events,Conditions,WindDirDegrees,DateUTC
12:09 AM,24.8,19.4,80,30.04,1.8,East,9.2,-,0.00,Snow,Light Snow,80,2013-03-05 06:09:00
1:36 AM,24.8,19.4,80,30.02,2.5,East,9.2,-,0.00,Snow,Light Snow,90,2013-03-05 07:36:00
1:45 AM,24.8,19.4,80,30.02,3.0,East,11.5,-,0.00,Snow,Light Snow,90,2013-03-05 07:45:00
1:56 AM,24.1,19.0,81,30.05,5.0,East,10.4,-,0.00,Snow,Light Snow,80,2013-03-05 07:56:00
2:30 AM,24.8,19.4,80,29.99,2.0,ENE,9.2,-,0.00,Snow,Light Snow,70,2013-03-05 08:30:00
2:56 AM,24.1,19.0,81,30.04,4.0,ENE,8.1,-,0.00,Snow,Light Snow,70,2013-03-05 08:56:00
3:33 AM,24.8,19.4,80,29.98,2.5,ENE,8.1,-,0.00,Snow,Light Snow,70,2013-03-05 09:33:00
3:47 AM,24.8,19.4,80,29.99,1.8,ENE,4.6,-,0.00,Snow,Light Snow,70,2013-03-05 09:47:00
3:56 AM,24.1,19.0,81,30.03,1.5,ENE,4.6,-,0.00,Snow,Light Snow,70,2013-03-05 09:56:00
4:56 AM,23.0,19.9,88,30.04,1.0,NE,5.8,-,0.00,Snow,Light Snow,50,2013-03-05 10:56:00
5:56 AM,23.0,19.9,88,30.04,1.0,NE,5.8,-,0.00,Snow,Light Snow,50,2013-03-05 11:56:00
6:51 AM,21.2,19.4,93,30.00,0.5,NE,8.1,-,0.00,Fog-Snow,Snow,50,2013-03-05 12:51:00
6:56 AM,21.9,19.9,92,30.04,0.5,ENE,6.9,-,0.00,Fog-Snow,Snow,60,2013-03-05 12:56:00
7:18 AM,23.0,19.4,86,30.00,0.8,NE,8.1,-,0.00,Snow,Light Snow,50,2013-03-05 13:18:00
7:39 AM,23.0,19.4,86,30.01,1.0,NE,8.1,-,0.00,Snow,Light Snow,50,2013-03-05 13:39:00
7:56 AM,23.0,19.9,88,30.05,1.0,ENE,9.2,-,0.00,Snow,Light Snow,60,2013-03-05 13:56:00
8:16 AM,23.0,19.4,86,30.01,0.8,ENE,12.7,-,0.00,Snow,Light Snow,60,2013-03-05 14:16:00
8:37 AM,23.0,19.4,86,30.02,0.5,ENE,10.4,-,0.00,Fog-Snow,Snow,60,2013-03-05 14:37:00
8:56 AM,23.0,19.9,88,30.06,0.8,ENE,12.7,-,0.00,Snow,Light Snow,60,2013-03-05 14:56:00
9:42 AM,24.8,19.4,80,30.01,0.8,ENE,13.8,-,0.00,Snow,Light Snow,60,2013-03-05 15:42:00
9:56 AM,24.1,19.9,84,30.05,1.2,ENE,12.7,-,0.00,Snow,Light Snow,60,2013-03-05 15:56:00
10:27 AM,24.8,21.2,86,30.01,0.5,NE,11.5,-,0.00,Fog-Snow,Snow,50,2013-03-05 16:27:00
10:51 AM,24.8,21.2,86,30.01,0.2,NE,11.5,-,0.00,Fog-Snow,Snow,50,2013-03-05 16:51:00
10:56 AM,25.0,21.0,85,30.06,0.2,NE,10.4,-,0.00,Fog-Snow,Snow,50,2013-03-05 16:56:00
11:21 AM,24.8,21.2,86,30.02,0.2,NNE,6.9,-,0.00,Fog-Snow,Snow,30,2013-03-05 17:21:00
11:56 AM,26.1,21.9,84,30.06,0.2,NNE,9.2,-,0.00,Fog-Snow,Snow,30,2013-03-05 17:56:00
12:19 PM,26.6,21.2,80,30.02,0.5,NE,12.7,-,0.00,Snow,Snow,40,2013-03-05 18:19:00
12:53 PM,26.6,21.2,80,30.02,0.5,NNE,11.5,-,0.00,Snow,Light Snow,30,2013-03-05 18:53:00
12:56 PM,26.1,21.0,81,30.06,0.5,NNE,9.2,-,0.00,Snow,Light Snow,30,2013-03-05 18:56:00
1:00 PM,26.6,21.2,80,30.02,1.0,NNE,10.4,-,0.00,Snow,Light Snow,20,2013-03-05 19:00:00
1:18 PM,26.6,21.2,80,30.02,1.2,NNE,8.1,-,0.00,Snow,Light Snow,20,2013-03-05 19:18:00
1:56 PM,26.1,21.9,84,30.08,1.0,NNE,6.9,-,0.00,Snow,Light Snow,20,2013-03-05 19:56:00
2:56 PM,27.0,21.9,81,30.08,2.0,North,10.4,16.1,0.00,Snow,Light Snow,10,2013-03-05 20:56:00
3:11 PM,26.6,21.2,80,30.05,2.5,North,6.9,-,0.00,Snow,Light Snow,10,2013-03-05 21:11:00
3:24 PM,26.6,21.2,80,30.05,1.8,North,9.2,-,0.00,Snow,Light Snow,10,2013-03-05 21:24:00
3:56 PM,27.0,21.9,81,30.11,1.8,NNE,9.2,-,0.00,Snow,Light Snow,20,2013-03-05 21:56:00
4:03 PM,26.6,21.2,80,30.07,2.5,North,6.9,-,0.00,Snow,Light Snow,360,2013-03-05 22:03:00
4:32 PM,26.6,21.2,80,30.08,3.0,North,10.4,-,0.00,Snow,Light Snow,10,2013-03-05 22:32:00
4:56 PM,27.0,21.9,81,30.14,4.0,NNE,9.2,-,0.00,Snow,Light Snow,20,2013-03-05 22:56:00
5:56 PM,26.1,21.0,81,30.16,10.0,North,4.6,-,0.00,,Mostly Cloudy,350,2013-03-05 23:56:00
6:56 PM,25.0,21.0,85,30.17,10.0,NW,3.5,-,N/A,,Clear,320,2013-03-06 00:56:00
7:56 PM,24.1,21.0,88,30.19,10.0,NNW,5.8,-,N/A,,Overcast,330,2013-03-06 01:56:00
8:49 PM,24.8,19.4,80,30.16,10.0,North,6.9,-,N/A,,Overcast,350,2013-03-06 02:49:00
8:56 PM,24.1,18.0,77,30.21,10.0,NNW,6.9,-,N/A,,Overcast,340,2013-03-06 02:56:00
9:56 PM,25.0,19.0,78,30.23,9.0,North,9.2,-,0.00,,Overcast,350,2013-03-06 03:56:00
10:56 PM,24.1,19.0,81,30.25,10.0,North,9.2,-,0.00,,Overcast,350,2013-03-06 04:56:00
11:13 PM,24.8,19.4,80,30.21,10.0,North,6.9,-,N/A,,Overcast,350,2013-03-06 05:13:00
11:56 PM,24.1,19.0,81,30.25,10.0,North,6.9,-,N/A,,Overcast,350,2013-03-06 05:56:00